sensor_id;sensor_type;location;lat;lon;timestamp;P1;durP1;ratioP1;P2;durP2;ratioP2
60306;SDS011;46155;52.364;6.580;2022-12-20T04:02:45;40.47;;;38.07;;
60306;SDS011;46155;52.364;6.580;2022-12-20T04:05:10;40.33;;;38.03;;
60306;SDS011;46155;52.364;6.580;2022-12-20T04:07:35;40.70;;;38.07;;
60306;SDS011;46155;52.364;6.580;2022-12-20T04:10:01;38.90;;;36.70;;
60306;SDS011;46155;52.364;6.580;2022-12-20T04:12:26;39.63;;;37.23;;
60306;SDS011;46155;52.364;6.580;2022-12-20T04:14:51;40.27;;;37.83;;
60306;SDS011;46155;52.364;6.580;2022-12-20T04:17:17;38.87;;;36.67;;
60306;SDS011;46155;52.364;6.580;2022-12-20T04:19:42;36.53;;;34.40;;
60306;SDS011;46155;52.364;6.580;2022-12-20T04:22:07;34.63;;;32.83;;
60306;SDS011;46155;52.364;6.580;2022-12-20T04:24:33;36.50;;;34.50;;
60306;SDS011;46155;52.364;6.580;2022-12-20T04:26:58;37.17;;;34.93;;
60306;SDS011;46155;52.364;6.580;2022-12-20T04:29:23;35.83;;;33.93;;
60306;SDS011;46155;52.364;6.580;2022-12-20T04:31:48;35.37;;;33.37;;
60306;SDS011;46155;52.364;6.580;2022-12-20T04:34:14;34.37;;;32.57;;
60306;SDS011;46155;52.364;6.580;2022-12-20T04:36:39;35.33;;;33.33;;
60306;SDS011;46155;52.364;6.580;2022-12-20T04:39:04;34.77;;;32.23;;
60306;SDS011;46155;52.364;6.580;2022-12-20T04:41:30;32.67;;;30.93;;
60306;SDS011;46155;52.364;6.580;2022-12-20T04:43:56;34.13;;;32.30;;
60306;SDS011;46155;52.364;6.580;2022-12-20T04:46:23;33.63;;;31.53;;
60306;SDS011;46155;52.364;6.580;2022-12-20T04:48:49;34.47;;;32.27;;
60306;SDS011;46155;52.364;6.580;2022-12-20T04:51:15;31.77;;;30.10;;
60306;SDS011;46155;52.364;6.580;2022-12-20T04:53:41;32.63;;;30.60;;
60306;SDS011;46155;52.364;6.580;2022-12-20T04:56:13;32.23;;;30.23;;
60306;SDS011;46155;52.364;6.580;2022-12-20T04:58:40;32.10;;;30.10;;
60306;SDS011;46155;52.364;6.580;2022-12-20T05:01:05;33.77;;;31.93;;
60306;SDS011;46155;52.364;6.580;2022-12-20T05:03:31;32.70;;;30.87;;
60306;SDS011;46155;52.364;6.580;2022-12-20T05:05:56;32.90;;;30.80;;
60306;SDS011;46155;52.364;6.580;2022-12-20T05:08:22;30.27;;;28.53;;
60306;SDS011;46155;52.364;6.580;2022-12-20T05:10:47;34.40;;;32.23;;
60306;SDS011;46155;52.364;6.580;2022-12-20T05:13:13;32.07;;;30.07;;
60306;SDS011;46155;52.364;6.580;2022-12-20T05:15:38;31.40;;;29.70;;
60306;SDS011;46155;52.364;6.580;2022-12-20T05:18:03;29.37;;;27.87;;
60306;SDS011;46155;52.364;6.580;2022-12-20T05:20:29;29.93;;;28.13;;
60306;SDS011;46155;52.364;6.580;2022-12-20T05:22:55;29.67;;;27.77;;
60306;SDS011;46155;52.364;6.580;2022-12-20T05:25:44;30.53;;;28.73;;
60306;SDS011;46155;52.364;6.580;2022-12-20T05:28:29;30.37;;;28.57;;
60306;SDS011;46155;52.364;6.580;2022-12-20T05:30:55;29.57;;;27.77;;
60306;SDS011;46155;52.364;6.580;2022-12-20T05:33:21;27.30;;;25.90;;
60306;SDS011;46155;52.364;6.580;2022-12-20T05:35:46;25.60;;;24.27;;
60306;SDS011;46155;52.364;6.580;2022-12-20T05:38:11;27.70;;;26.10;;
60306;SDS011;46155;52.364;6.580;2022-12-20T05:40:37;27.67;;;26.07;;
60306;SDS011;46155;52.364;6.580;2022-12-20T05:43:03;27.17;;;25.57;;
60306;SDS011;46155;52.364;6.580;2022-12-20T05:45:30;24.20;;;22.83;;
60306;SDS011;46155;52.364;6.580;2022-12-20T05:47:55;24.90;;;23.40;;
60306;SDS011;46155;52.364;6.580;2022-12-20T05:50:21;24.70;;;23.00;;
60306;SDS011;46155;52.364;6.580;2022-12-20T05:52:46;24.67;;;23.23;;
60306;SDS011;46155;52.364;6.580;2022-12-20T05:55:11;25.27;;;23.67;;
60306;SDS011;46155;52.364;6.580;2022-12-20T05:57:37;22.90;;;21.60;;
60306;SDS011;46155;52.364;6.580;2022-12-20T06:00:03;24.53;;;23.10;;
60306;SDS011;46155;52.364;6.580;2022-12-20T06:02:29;26.07;;;24.57;;
60306;SDS011;46155;52.364;6.580;2022-12-20T06:04:54;26.80;;;25.30;;
60306;SDS011;46155;52.364;6.580;2022-12-20T06:07:19;25.00;;;23.70;;
60306;SDS011;46155;52.364;6.580;2022-12-20T06:09:45;26.37;;;24.83;;
60306;SDS011;46155;52.364;6.580;2022-12-20T06:12:10;23.43;;;22.10;;
60306;SDS011;46155;52.364;6.580;2022-12-20T06:14:35;27.20;;;25.63;;
60306;SDS011;46155;52.364;6.580;2022-12-20T06:17:01;25.37;;;23.97;;
60306;SDS011;46155;52.364;6.580;2022-12-20T06:19:27;25.63;;;24.20;;
60306;SDS011;46155;52.364;6.580;2022-12-20T06:21:52;26.87;;;25.13;;
60306;SDS011;46155;52.364;6.580;2022-12-20T06:24:17;26.90;;;25.10;;
60306;SDS011;46155;52.364;6.580;2022-12-20T06:26:43;27.83;;;25.93;;
60306;SDS011;46155;52.364;6.580;2022-12-20T06:29:08;29.60;;;27.57;;
60306;SDS011;46155;52.364;6.580;2022-12-20T06:31:38;31.33;;;29.57;;
60306;SDS011;46155;52.364;6.580;2022-12-20T06:34:04;31.77;;;29.77;;
60306;SDS011;46155;52.364;6.580;2022-12-20T06:36:30;34.00;;;31.80;;
60306;SDS011;46155;52.364;6.580;2022-12-20T06:38:55;34.53;;;32.43;;
60306;SDS011;46155;52.364;6.580;2022-12-20T06:41:21;35.87;;;33.87;;
60306;SDS011;46155;52.364;6.580;2022-12-20T06:43:46;34.77;;;32.67;;
60306;SDS011;46155;52.364;6.580;2022-12-20T06:46:11;36.80;;;34.70;;
60306;SDS011;46155;52.364;6.580;2022-12-20T06:48:37;38.30;;;36.10;;
60306;SDS011;46155;52.364;6.580;2022-12-20T06:51:02;37.03;;;34.60;;
60306;SDS011;46155;52.364;6.580;2022-12-20T06:53:28;40.27;;;37.77;;
60306;SDS011;46155;52.364;6.580;2022-12-20T06:55:53;40.93;;;38.63;;
60306;SDS011;46155;52.364;6.580;2022-12-20T06:58:19;43.67;;;41.07;;
60306;SDS011;46155;52.364;6.580;2022-12-20T07:00:45;41.73;;;39.27;;
60306;SDS011;46155;52.364;6.580;2022-12-20T07:03:10;39.93;;;37.43;;
60306;SDS011;46155;52.364;6.580;2022-12-20T07:05:36;39.27;;;36.77;;
60306;SDS011;46155;52.364;6.580;2022-12-20T07:08:01;40.73;;;38.23;;
60306;SDS011;46155;52.364;6.580;2022-12-20T07:10:28;40.83;;;38.57;;
60306;SDS011;46155;52.364;6.580;2022-12-20T07:12:55;41.20;;;38.80;;
60306;SDS011;46155;52.364;6.580;2022-12-20T07:15:20;41.93;;;39.43;;
60306;SDS011;46155;52.364;6.580;2022-12-20T07:17:46;46.63;;;43.43;;
60306;SDS011;46155;52.364;6.580;2022-12-20T07:20:11;41.90;;;39.40;;
60306;SDS011;46155;52.364;6.580;2022-12-20T07:22:37;46.37;;;43.60;;
60306;SDS011;46155;52.364;6.580;2022-12-20T07:25:03;45.17;;;42.50;;
60306;SDS011;46155;52.364;6.580;2022-12-20T07:27:28;44.17;;;41.67;;
60306;SDS011;46155;52.364;6.580;2022-12-20T07:29:54;41.77;;;39.03;;
60306;SDS011;46155;52.364;6.580;2022-12-20T07:32:19;42.90;;;40.60;;
60306;SDS011;46155;52.364;6.580;2022-12-20T07:34:44;43.63;;;40.93;;
60306;SDS011;46155;52.364;6.580;2022-12-20T07:37:10;40.53;;;38.03;;
60306;SDS011;46155;52.364;6.580;2022-12-20T07:39:35;42.83;;;40.43;;
60306;SDS011;46155;52.364;6.580;2022-12-20T07:42:01;37.37;;;35.07;;
60306;SDS011;46155;52.364;6.580;2022-12-20T07:44:26;35.00;;;33.00;;
60306;SDS011;46155;52.364;6.580;2022-12-20T07:46:51;35.33;;;33.17;;
60306;SDS011;46155;52.364;6.580;2022-12-20T07:49:17;33.53;;;31.53;;
60306;SDS011;46155;52.364;6.580;2022-12-20T07:51:43;30.00;;;28.10;;
60306;SDS011;46155;52.364;6.580;2022-12-20T07:54:13;26.20;;;24.33;;
60306;SDS011;46155;52.364;6.580;2022-12-20T07:56:43;27.23;;;25.50;;
60306;SDS011;46155;52.364;6.580;2022-12-20T07:59:12;25.37;;;23.87;;
60306;SDS011;46155;52.364;6.580;2022-12-20T08:01:40;24.03;;;21.93;;
60306;SDS011;46155;52.364;6.580;2022-12-20T08:04:10;23.53;;;22.03;;
60306;SDS011;46155;52.364;6.580;2022-12-20T08:06:40;21.87;;;20.57;;
60306;SDS011;46155;52.364;6.580;2022-12-20T08:09:06;22.00;;;20.57;;
60306;SDS011;46155;52.364;6.580;2022-12-20T08:11:34;20.53;;;18.87;;
60306;SDS011;46155;52.364;6.580;2022-12-20T08:14:01;19.50;;;18.30;;
60306;SDS011;46155;52.364;6.580;2022-12-20T08:16:28;20.33;;;18.97;;
60306;SDS011;46155;52.364;6.580;2022-12-20T08:18:55;21.40;;;19.60;;
60306;SDS011;46155;52.364;6.580;2022-12-20T08:21:20;20.43;;;18.67;;
60306;SDS011;46155;52.364;6.580;2022-12-20T08:23:45;18.97;;;17.60;;
60306;SDS011;46155;52.364;6.580;2022-12-20T08:26:11;18.80;;;17.20;;
60306;SDS011;46155;52.364;6.580;2022-12-20T08:28:36;18.33;;;17.03;;
60306;SDS011;46155;52.364;6.580;2022-12-20T08:31:02;19.13;;;15.80;;
60306;SDS011;46155;52.364;6.580;2022-12-20T08:33:30;17.07;;;15.80;;
60306;SDS011;46155;52.364;6.580;2022-12-20T08:35:57;16.43;;;15.20;;
60306;SDS011;46155;52.364;6.580;2022-12-20T08:38:28;14.37;;;13.37;;
60306;SDS011;46155;52.364;6.580;2022-12-20T08:40:55;14.40;;;13.40;;
60306;SDS011;46155;52.364;6.580;2022-12-20T08:43:25;15.27;;;14.10;;
60306;SDS011;46155;52.364;6.580;2022-12-20T08:45:51;14.27;;;13.23;;
60306;SDS011;46155;52.364;6.580;2022-12-20T08:48:18;14.60;;;13.70;;
60306;SDS011;46155;52.364;6.580;2022-12-20T08:50:43;13.93;;;13.00;;
60306;SDS011;46155;52.364;6.580;2022-12-20T08:53:09;14.00;;;12.67;;
60306;SDS011;46155;52.364;6.580;2022-12-20T08:55:34;14.80;;;13.60;;
60306;SDS011;46155;52.364;6.580;2022-12-20T08:58:00;13.50;;;12.60;;
60306;SDS011;46155;52.364;6.580;2022-12-20T09:00:25;13.00;;;11.90;;
60306;SDS011;46155;52.364;6.580;2022-12-20T09:02:52;13.47;;;12.23;;
60306;SDS011;46155;52.364;6.580;2022-12-20T09:05:18;13.77;;;12.73;;
60306;SDS011;46155;52.364;6.580;2022-12-20T09:07:44;13.13;;;12.13;;
60306;SDS011;46155;52.364;6.580;2022-12-20T09:10:09;12.37;;;11.57;;
60306;SDS011;46155;52.364;6.580;2022-12-20T09:12:35;15.43;;;13.37;;
60306;SDS011;46155;52.364;6.580;2022-12-20T09:15:02;13.00;;;12.17;;
60306;SDS011;46155;52.364;6.580;2022-12-20T09:17:28;13.83;;;12.53;;
60306;SDS011;46155;52.364;6.580;2022-12-20T09:19:54;12.93;;;12.13;;
60306;SDS011;46155;52.364;6.580;2022-12-20T09:22:19;11.77;;;10.87;;
60306;SDS011;46155;52.364;6.580;2022-12-20T09:24:45;12.80;;;12.00;;
60306;SDS011;46155;52.364;6.580;2022-12-20T09:27:10;10.90;;;10.20;;
60306;SDS011;46155;52.364;6.580;2022-12-20T09:29:35;14.10;;;12.67;;
60306;SDS011;46155;52.364;6.580;2022-12-20T09:32:01;12.37;;;11.27;;
60306;SDS011;46155;52.364;6.580;2022-12-20T09:34:26;11.97;;;10.73;;
60306;SDS011;46155;52.364;6.580;2022-12-20T09:36:52;11.43;;;10.63;;
60306;SDS011;46155;52.364;6.580;2022-12-20T09:39:17;12.87;;;11.90;;
60306;SDS011;46155;52.364;6.580;2022-12-20T09:41:43;14.20;;;13.20;;
60306;SDS011;46155;52.364;6.580;2022-12-20T09:44:13;13.57;;;12.67;;
60306;SDS011;46155;52.364;6.580;2022-12-20T09:46:42;14.43;;;13.20;;
60306;SDS011;46155;52.364;6.580;2022-12-20T09:49:15;14.70;;;13.80;;
60306;SDS011;46155;52.364;6.580;2022-12-20T09:59:57;16.17;;;15.03;;
60306;SDS011;46155;52.364;6.580;2022-12-20T10:02:23;18.07;;;17.07;;
60306;SDS011;46155;52.364;6.580;2022-12-20T10:04:50;21.27;;;19.13;;
60306;SDS011;46155;52.364;6.580;2022-12-20T10:09:51;22.77;;;21.50;;
60306;SDS011;46155;52.364;6.580;2022-12-20T10:15:27;24.43;;;22.80;;
60306;SDS011;46155;52.364;6.580;2022-12-20T10:23:30;25.90;;;23.97;;
60306;SDS011;46155;52.364;6.580;2022-12-20T10:26:11;29.90;;;27.80;;
60306;SDS011;46155;52.364;6.580;2022-12-20T10:28:37;26.70;;;24.87;;
60306;SDS011;46155;52.364;6.580;2022-12-20T10:31:11;29.13;;;27.10;;
60306;SDS011;46155;52.364;6.580;2022-12-20T10:33:38;30.10;;;28.07;;
60306;SDS011;46155;52.364;6.580;2022-12-20T10:38:52;29.10;;;27.50;;
60306;SDS011;46155;52.364;6.580;2022-12-20T10:41:23;32.00;;;29.93;;
60306;SDS011;46155;52.364;6.580;2022-12-20T10:43:51;30.23;;;28.23;;
60306;SDS011;46155;52.364;6.580;2022-12-20T10:46:21;32.20;;;30.27;;
60306;SDS011;46155;52.364;6.580;2022-12-20T10:48:47;31.43;;;29.43;;
60306;SDS011;46155;52.364;6.580;2022-12-20T10:51:18;28.23;;;26.63;;
60306;SDS011;46155;52.364;6.580;2022-12-20T11:01:23;28.43;;;26.67;;
60306;SDS011;46155;52.364;6.580;2022-12-20T11:03:55;28.23;;;26.73;;
60306;SDS011;46155;52.364;6.580;2022-12-20T11:06:22;30.93;;;29.23;;
60306;SDS011;46155;52.364;6.580;2022-12-20T11:08:49;31.87;;;29.90;;
60306;SDS011;46155;52.364;6.580;2022-12-20T11:11:19;32.17;;;29.97;;
60306;SDS011;46155;52.364;6.580;2022-12-20T11:13:47;33.53;;;30.97;;
60306;SDS011;46155;52.364;6.580;2022-12-20T11:16:24;33.27;;;31.10;;
60306;SDS011;46155;52.364;6.580;2022-12-20T11:21:52;31.47;;;29.37;;
60306;SDS011;46155;52.364;6.580;2022-12-20T11:35:36;38.70;;;35.87;;
60306;SDS011;46155;52.364;6.580;2022-12-20T11:43:54;37.13;;;34.93;;
60306;SDS011;46155;52.364;6.580;2022-12-20T11:54:45;34.10;;;32.20;;
60306;SDS011;46155;52.364;6.580;2022-12-20T11:57:27;35.30;;;33.00;;
60306;SDS011;46155;52.364;6.580;2022-12-20T11:59:57;34.73;;;32.73;;
60306;SDS011;46155;52.364;6.580;2022-12-20T12:02:27;36.63;;;34.07;;
60306;SDS011;46155;52.364;6.580;2022-12-20T12:05:01;36.87;;;34.77;;
60306;SDS011;46155;52.364;6.580;2022-12-20T12:07:30;36.93;;;34.53;;
60306;SDS011;46155;52.364;6.580;2022-12-20T12:09:59;38.87;;;36.13;;
60306;SDS011;46155;52.364;6.580;2022-12-20T12:12:42;35.93;;;33.90;;
60306;SDS011;46155;52.364;6.580;2022-12-20T12:18:01;36.90;;;34.87;;
60306;SDS011;46155;52.364;6.580;2022-12-20T12:20:39;37.47;;;35.27;;
60306;SDS011;46155;52.364;6.580;2022-12-20T12:23:39;37.20;;;35.10;;
60306;SDS011;46155;52.364;6.580;2022-12-20T12:26:21;35.70;;;33.57;;
60306;SDS011;46155;52.364;6.580;2022-12-20T12:28:54;37.80;;;35.47;;
60306;SDS011;46155;52.364;6.580;2022-12-20T12:31:34;38.77;;;36.03;;
60306;SDS011;46155;52.364;6.580;2022-12-20T12:34:27;39.70;;;36.97;;
60306;SDS011;46155;52.364;6.580;2022-12-20T12:48:14;38.63;;;36.40;;
60306;SDS011;46155;52.364;6.580;2022-12-20T12:50:47;38.03;;;35.63;;
60306;SDS011;46155;52.364;6.580;2022-12-20T12:53:19;39.37;;;36.97;;
60306;SDS011;46155;52.364;6.580;2022-12-20T12:55:48;40.17;;;38.00;;
60306;SDS011;46155;52.364;6.580;2022-12-20T13:03:16;37.33;;;34.60;;
60306;SDS011;46155;52.364;6.580;2022-12-20T13:06:41;39.53;;;37.13;;
60306;SDS011;46155;52.364;6.580;2022-12-20T13:08:48;39.90;;;37.30;;
60306;SDS011;46155;52.364;6.580;2022-12-20T13:16:48;38.93;;;36.23;;
60306;SDS011;46155;52.364;6.580;2022-12-20T13:19:31;38.60;;;36.30;;
60306;SDS011;46155;52.364;6.580;2022-12-20T13:27:57;38.63;;;36.43;;
60306;SDS011;46155;52.364;6.580;2022-12-20T13:43:27;38.40;;;36.20;;
60306;SDS011;46155;52.364;6.580;2022-12-20T13:48:34;38.07;;;35.87;;
60306;SDS011;46155;52.364;6.580;2022-12-20T13:51:08;37.07;;;34.87;;
60306;SDS011;46155;52.364;6.580;2022-12-20T13:53:34;37.67;;;35.57;;
60306;SDS011;46155;52.364;6.580;2022-12-20T13:59:05;39.17;;;36.87;;
60306;SDS011;46155;52.364;6.580;2022-12-20T14:01:37;40.00;;;37.67;;
60306;SDS011;46155;52.364;6.580;2022-12-20T14:04:12;38.03;;;36.03;;
60306;SDS011;46155;52.364;6.580;2022-12-20T14:06:38;39.67;;;37.10;;
60306;SDS011;46155;52.364;6.580;2022-12-20T14:09:04;38.50;;;36.30;;
60306;SDS011;46155;52.364;6.580;2022-12-20T14:12:06;39.57;;;37.07;;
60306;SDS011;46155;52.364;6.580;2022-12-20T14:14:48;38.63;;;36.33;;
60306;SDS011;46155;52.364;6.580;2022-12-20T14:22:41;41.07;;;38.00;;
60306;SDS011;46155;52.364;6.580;2022-12-20T14:25:15;42.43;;;40.00;;
60306;SDS011;46155;52.364;6.580;2022-12-20T14:27:45;44.33;;;40.87;;
60306;SDS011;46155;52.364;6.580;2022-12-20T14:30:25;46.03;;;42.87;;
60306;SDS011;46155;52.364;6.580;2022-12-20T14:32:53;45.37;;;42.50;;
60306;SDS011;46155;52.364;6.580;2022-12-20T14:35:19;44.87;;;42.27;;
60306;SDS011;46155;52.364;6.580;2022-12-20T14:37:52;47.97;;;45.17;;
60306;SDS011;46155;52.364;6.580;2022-12-20T14:40:23;47.77;;;44.97;;
60306;SDS011;46155;52.364;6.580;2022-12-20T14:42:50;47.90;;;44.90;;
60306;SDS011;46155;52.364;6.580;2022-12-20T14:45:17;50.53;;;47.43;;
60306;SDS011;46155;52.364;6.580;2022-12-20T14:47:48;45.87;;;43.07;;
60306;SDS011;46155;52.364;6.580;2022-12-20T14:50:21;45.87;;;43.17;;
60306;SDS011;46155;52.364;6.580;2022-12-20T14:52:51;47.87;;;44.77;;
60306;SDS011;46155;52.364;6.580;2022-12-20T14:55:31;48.93;;;45.77;;
60306;SDS011;46155;52.364;6.580;2022-12-20T14:57:56;54.63;;;50.60;;
60306;SDS011;46155;52.364;6.580;2022-12-20T15:02:59;46.10;;;43.37;;
60306;SDS011;46155;52.364;6.580;2022-12-20T15:10:50;45.73;;;42.50;;
60306;SDS011;46155;52.364;6.580;2022-12-20T15:16:05;46.07;;;43.27;;
60306;SDS011;46155;52.364;6.580;2022-12-20T15:18:41;47.03;;;44.53;;
60306;SDS011;46155;52.364;6.580;2022-12-20T15:21:16;45.97;;;43.07;;
60306;SDS011;46155;52.364;6.580;2022-12-20T15:23:49;46.47;;;43.83;;
60306;SDS011;46155;52.364;6.580;2022-12-20T15:26:16;46.47;;;43.77;;
60306;SDS011;46155;52.364;6.580;2022-12-20T15:28:43;44.43;;;41.93;;
60306;SDS011;46155;52.364;6.580;2022-12-20T15:31:11;48.37;;;45.43;;
60306;SDS011;46155;52.364;6.580;2022-12-20T15:33:39;47.53;;;44.73;;
60306;SDS011;46155;52.364;6.580;2022-12-20T15:36:05;46.10;;;43.40;;
60306;SDS011;46155;52.364;6.580;2022-12-20T15:38:31;47.67;;;44.87;;
60306;SDS011;46155;52.364;6.580;2022-12-20T15:41:03;45.73;;;43.13;;
60306;SDS011;46155;52.364;6.580;2022-12-20T15:43:33;43.03;;;40.53;;
60306;SDS011;46155;52.364;6.580;2022-12-20T15:46:02;46.43;;;43.43;;
60306;SDS011;46155;52.364;6.580;2022-12-20T15:48:28;45.03;;;42.30;;
60306;SDS011;46155;52.364;6.580;2022-12-20T15:50:54;47.00;;;43.63;;
60306;SDS011;46155;52.364;6.580;2022-12-20T15:53:31;47.60;;;44.70;;
60306;SDS011;46155;52.364;6.580;2022-12-20T15:55:58;45.27;;;42.73;;
60306;SDS011;46155;52.364;6.580;2022-12-20T15:58:24;46.47;;;43.67;;
60306;SDS011;46155;52.364;6.580;2022-12-20T16:00:55;45.53;;;42.93;;
60306;SDS011;46155;52.364;6.580;2022-12-20T16:03:24;44.73;;;42.20;;
60306;SDS011;46155;52.364;6.580;2022-12-20T16:05:54;45.63;;;42.73;;
60306;SDS011;46155;52.364;6.580;2022-12-20T16:08:20;45.03;;;42.50;;
60306;SDS011;46155;52.364;6.580;2022-12-20T16:10:45;47.10;;;44.20;;
60306;SDS011;46155;52.364;6.580;2022-12-20T16:13:12;44.10;;;41.50;;
60306;SDS011;46155;52.364;6.580;2022-12-20T16:15:39;43.90;;;41.40;;
60306;SDS011;46155;52.364;6.580;2022-12-20T16:18:05;45.07;;;42.60;;
60306;SDS011;46155;52.364;6.580;2022-12-20T16:20:31;49.17;;;46.17;;
60306;SDS011;46155;52.364;6.580;2022-12-20T16:22:57;50.80;;;47.87;;
60306;SDS011;46155;52.364;6.580;2022-12-20T16:25:24;48.27;;;45.47;;
60306;SDS011;46155;52.364;6.580;2022-12-20T16:27:55;46.73;;;43.60;;
60306;SDS011;46155;52.364;6.580;2022-12-20T16:30:21;47.70;;;44.77;;
60306;SDS011;46155;52.364;6.580;2022-12-20T16:32:47;48.20;;;45.30;;
60306;SDS011;46155;52.364;6.580;2022-12-20T16:35:21;47.67;;;44.97;;
60306;SDS011;46155;52.364;6.580;2022-12-20T16:37:46;48.37;;;45.67;;
60306;SDS011;46155;52.364;6.580;2022-12-20T16:40:12;48.40;;;45.80;;
60306;SDS011;46155;52.364;6.580;2022-12-20T16:42:39;46.43;;;43.83;;
60306;SDS011;46155;52.364;6.580;2022-12-20T16:45:05;47.93;;;45.03;;
60306;SDS011;46155;52.364;6.580;2022-12-20T16:47:31;48.67;;;45.80;;
60306;SDS011;46155;52.364;6.580;2022-12-20T16:49:56;48.70;;;46.00;;
60306;SDS011;46155;52.364;6.580;2022-12-20T16:52:21;48.97;;;45.97;;
60306;SDS011;46155;52.364;6.580;2022-12-20T16:54:47;51.10;;;48.10;;
60306;SDS011;46155;52.364;6.580;2022-12-20T16:57:12;49.33;;;46.33;;
60306;SDS011;46155;52.364;6.580;2022-12-20T16:59:38;51.97;;;48.80;;
60306;SDS011;46155;52.364;6.580;2022-12-20T17:02:04;52.47;;;49.37;;
60306;SDS011;46155;52.364;6.580;2022-12-20T17:04:51;50.13;;;46.60;;
60306;SDS011;46155;52.364;6.580;2022-12-20T17:07:16;49.90;;;46.80;;
60306;SDS011;46155;52.364;6.580;2022-12-20T17:09:42;51.20;;;48.00;;
60306;SDS011;46155;52.364;6.580;2022-12-20T17:12:11;47.73;;;44.83;;
60306;SDS011;46155;52.364;6.580;2022-12-20T17:14:39;49.80;;;46.43;;
60306;SDS011;46155;52.364;6.580;2022-12-20T17:17:04;47.27;;;44.03;;
60306;SDS011;46155;52.364;6.580;2022-12-20T17:19:30;50.97;;;47.97;;
60306;SDS011;46155;52.364;6.580;2022-12-20T17:21:55;49.77;;;46.77;;
60306;SDS011;46155;52.364;6.580;2022-12-20T17:24:21;51.00;;;47.70;;
60306;SDS011;46155;52.364;6.580;2022-12-20T17:26:47;52.33;;;49.23;;
60306;SDS011;46155;52.364;6.580;2022-12-20T17:29:13;52.90;;;49.70;;
60306;SDS011;46155;52.364;6.580;2022-12-20T17:31:39;51.97;;;48.80;;
60306;SDS011;46155;52.364;6.580;2022-12-20T17:34:16;49.63;;;46.63;;
60306;SDS011;46155;52.364;6.580;2022-12-20T17:36:42;48.30;;;45.30;;
60306;SDS011;46155;52.364;6.580;2022-12-20T17:39:08;50.50;;;46.77;;
60306;SDS011;46155;52.364;6.580;2022-12-20T17:41:33;47.73;;;44.73;;
60306;SDS011;46155;52.364;6.580;2022-12-20T17:43:59;46.20;;;43.30;;
60306;SDS011;46155;52.364;6.580;2022-12-20T17:46:26;48.20;;;45.10;;
60306;SDS011;46155;52.364;6.580;2022-12-20T17:48:52;48.33;;;45.30;;
60306;SDS011;46155;52.364;6.580;2022-12-20T17:51:21;45.50;;;42.70;;
60306;SDS011;46155;52.364;6.580;2022-12-20T17:53:50;49.47;;;46.47;;
60306;SDS011;46155;52.364;6.580;2022-12-20T17:56:27;47.47;;;44.73;;
60306;SDS011;46155;52.364;6.580;2022-12-20T17:58:54;47.97;;;44.93;;
60306;SDS011;46155;52.364;6.580;2022-12-20T18:01:21;50.03;;;46.73;;
60306;SDS011;46155;52.364;6.580;2022-12-20T18:03:52;51.87;;;48.73;;
60306;SDS011;46155;52.364;6.580;2022-12-20T18:06:19;49.73;;;46.70;;
60306;SDS011;46155;52.364;6.580;2022-12-20T18:08:49;49.40;;;46.40;;
60306;SDS011;46155;52.364;6.580;2022-12-20T18:11:15;48.93;;;45.57;;
60306;SDS011;46155;52.364;6.580;2022-12-20T18:13:42;46.20;;;43.27;;
60306;SDS011;46155;52.364;6.580;2022-12-20T18:16:08;45.87;;;43.00;;
60306;SDS011;46155;52.364;6.580;2022-12-20T18:18:34;48.10;;;45.10;;
60306;SDS011;46155;52.364;6.580;2022-12-20T18:21:04;45.30;;;42.40;;
60306;SDS011;46155;52.364;6.580;2022-12-20T18:23:34;47.17;;;44.07;;
60306;SDS011;46155;52.364;6.580;2022-12-20T18:26:04;46.60;;;43.77;;
60306;SDS011;46155;52.364;6.580;2022-12-20T18:28:29;44.63;;;41.73;;
60306;SDS011;46155;52.364;6.580;2022-12-20T18:30:55;47.03;;;44.20;;
60306;SDS011;46155;52.364;6.580;2022-12-20T18:33:20;43.30;;;40.80;;
60306;SDS011;46155;52.364;6.580;2022-12-20T18:35:45;45.40;;;42.40;;
60306;SDS011;46155;52.364;6.580;2022-12-20T18:38:10;46.00;;;43.07;;
60306;SDS011;46155;52.364;6.580;2022-12-20T18:40:37;45.87;;;43.07;;
60306;SDS011;46155;52.364;6.580;2022-12-20T18:43:08;47.23;;;44.23;;
60306;SDS011;46155;52.364;6.580;2022-12-20T18:45:33;46.53;;;43.57;;
60306;SDS011;46155;52.364;6.580;2022-12-20T18:47:59;48.33;;;45.23;;
60306;SDS011;46155;52.364;6.580;2022-12-20T18:50:24;46.77;;;43.77;;
60306;SDS011;46155;52.364;6.580;2022-12-20T18:52:49;44.50;;;41.67;;
60306;SDS011;46155;52.364;6.580;2022-12-20T18:55:15;45.87;;;42.87;;
60306;SDS011;46155;52.364;6.580;2022-12-20T18:57:40;45.43;;;42.63;;
60306;SDS011;46155;52.364;6.580;2022-12-20T19:00:05;44.50;;;41.63;;
60306;SDS011;46155;52.364;6.580;2022-12-20T19:02:32;44.33;;;41.53;;
60306;SDS011;46155;52.364;6.580;2022-12-20T19:04:59;43.50;;;40.80;;
60306;SDS011;46155;52.364;6.580;2022-12-20T19:07:24;46.43;;;42.83;;
60306;SDS011;46155;52.364;6.580;2022-12-20T19:09:49;45.17;;;42.10;;
60306;SDS011;46155;52.364;6.580;2022-12-20T19:12:15;47.03;;;43.30;;
60306;SDS011;46155;52.364;6.580;2022-12-20T19:14:40;45.90;;;42.80;;
60306;SDS011;46155;52.364;6.580;2022-12-20T19:17:05;48.37;;;45.17;;
60306;SDS011;46155;52.364;6.580;2022-12-20T19:19:30;48.53;;;45.57;;
60306;SDS011;46155;52.364;6.580;2022-12-20T19:21:56;49.30;;;46.17;;
60306;SDS011;46155;52.364;6.580;2022-12-20T19:24:21;47.37;;;44.17;;
60306;SDS011;46155;52.364;6.580;2022-12-20T19:26:46;47.80;;;44.33;;
60306;SDS011;46155;52.364;6.580;2022-12-20T19:29:12;50.10;;;46.70;;
60306;SDS011;46155;52.364;6.580;2022-12-20T19:31:37;48.40;;;45.07;;
60306;SDS011;46155;52.364;6.580;2022-12-20T19:34:04;49.77;;;46.07;;
60306;SDS011;46155;52.364;6.580;2022-12-20T19:36:39;48.00;;;44.60;;
60306;SDS011;46155;52.364;6.580;2022-12-20T19:39:07;49.77;;;46.37;;
60306;SDS011;46155;52.364;6.580;2022-12-20T19:41:40;51.27;;;47.13;;
60306;SDS011;46155;52.364;6.580;2022-12-20T19:44:05;50.10;;;46.50;;
60306;SDS011;46155;52.364;6.580;2022-12-20T19:46:31;49.00;;;45.67;;
60306;SDS011;46155;52.364;6.580;2022-12-20T19:48:57;49.40;;;45.90;;
60306;SDS011;46155;52.364;6.580;2022-12-20T19:51:23;50.20;;;46.57;;
60306;SDS011;46155;52.364;6.580;2022-12-20T19:53:49;51.03;;;47.23;;
60306;SDS011;46155;52.364;6.580;2022-12-20T19:56:18;52.47;;;48.67;;
60306;SDS011;46155;52.364;6.580;2022-12-20T19:58:45;51.83;;;48.03;;
60306;SDS011;46155;52.364;6.580;2022-12-20T20:01:12;49.73;;;46.33;;
60306;SDS011;46155;52.364;6.580;2022-12-20T20:03:39;51.47;;;47.67;;
60306;SDS011;46155;52.364;6.580;2022-12-20T20:06:05;51.13;;;47.53;;
60306;SDS011;46155;52.364;6.580;2022-12-20T20:08:31;50.83;;;47.23;;
60306;SDS011;46155;52.364;6.580;2022-12-20T20:10:58;51.57;;;47.97;;
60306;SDS011;46155;52.364;6.580;2022-12-20T20:13:24;54.43;;;50.10;;
60306;SDS011;46155;52.364;6.580;2022-12-20T20:15:54;54.23;;;50.23;;
60306;SDS011;46155;52.364;6.580;2022-12-20T20:18:21;50.13;;;46.47;;
60306;SDS011;46155;52.364;6.580;2022-12-20T20:20:48;49.53;;;45.83;;
60306;SDS011;46155;52.364;6.580;2022-12-20T20:23:14;54.27;;;49.97;;
60306;SDS011;46155;52.364;6.580;2022-12-20T20:25:46;55.47;;;50.73;;
60306;SDS011;46155;52.364;6.580;2022-12-20T20:28:17;50.17;;;46.33;;
60306;SDS011;46155;52.364;6.580;2022-12-20T20:30:43;50.73;;;46.80;;